Time,TemperatureF,DewpointF,PressureIn,WindDirection,WindDirectionDegrees,WindSpeedMPH,WindSpeedGustMPH,Humidity,HourlyPrecipIn,Conditions,Clouds,dailyrainin,SoftwareType,DateUTC
2013-02-04 00:00:00,45.0,30.0,29.98,NNW,330,17.0,20.0,54,-99.99,,,-99.99,,2013-02-04 05:00:00,
2013-02-04 00:21:00,45.0,30.0,29.98,NNW,330,17.0,20.0,54,-99.99,,,-99.99,,2013-02-04 05:21:00,
2013-02-04 00:33:00,45.0,30.0,29.98,NNW,330,17.0,20.0,54,-99.99,,,-99.99,,2013-02-04 05:33:00,
2013-02-04 00:41:00,45.0,30.0,29.98,NNW,330,17.0,20.0,54,-99.99,,,-99.99,,2013-02-04 05:41:00,
2013-02-04 00:51:00,45.0,30.0,29.98,NNW,330,17.0,20.0,54,-99.99,,,-99.99,,2013-02-04 05:51:00,
2013-02-04 01:00:00,43.0,29.0,29.99,NNW,340,15.0,17.0,56,-99.99,,,-99.99,,2013-02-04 06:00:00,
2013-02-04 01:21:00,43.0,29.0,29.99,NNW,340,15.0,17.0,56,-99.99,,,-99.99,,2013-02-04 06:21:00,
2013-02-04 01:31:00,43.0,29.0,29.99,NNW,340,15.0,17.0,56,-99.99,,,-99.99,,2013-02-04 06:31:00,
2013-02-04 01:41:00,43.0,29.0,29.99,NNW,340,15.0,17.0,56,-99.99,,,-99.99,,2013-02-04 06:41:00,
2013-02-04 01:51:00,43.0,29.0,29.99,NNW,340,15.0,17.0,56,-99.99,,,-99.99,,2013-02-04 06:51:00,
2013-02-04 02:00:00,42.0,26.0,30.01,NNW,340,16.0,18.0,51,-99.99,,,-99.99,,2013-02-04 07:00:00,
2013-02-04 02:21:00,42.0,26.0,30.01,NNW,340,16.0,18.0,51,-99.99,,,-99.99,,2013-02-04 07:21:00,
2013-02-04 02:31:00,42.0,26.0,30.01,NNW,340,16.0,18.0,51,-99.99,,,-99.99,,2013-02-04 07:31:00,
2013-02-04 02:41:00,42.0,26.0,30.01,NNW,340,16.0,18.0,51,-99.99,,,-99.99,,2013-02-04 07:41:00,
2013-02-04 02:51:00,42.0,26.0,30.01,NNW,340,16.0,18.0,51,-99.99,,,-99.99,,2013-02-04 07:51:00,
2013-02-04 03:00:00,41.0,24.0,30.02,NNW,340,14.0,16.0,50,-99.99,,,-99.99,,2013-02-04 08:00:00,
2013-02-04 03:21:00,41.0,24.0,30.02,NNW,340,14.0,16.0,50,-99.99,,,-99.99,,2013-02-04 08:21:00,
2013-02-04 03:31:00,41.0,24.0,30.02,NNW,340,14.0,16.0,50,-99.99,,,-99.99,,2013-02-04 08:31:00,
2013-02-04 03:41:00,41.0,24.0,30.02,NNW,340,14.0,16.0,50,-99.99,,,-99.99,,2013-02-04 08:41:00,
2013-02-04 03:52:00,41.0,24.0,30.02,NNW,340,14.0,16.0,50,-99.99,,,-99.99,,2013-02-04 08:52:00,
2013-02-04 04:00:00,41.0,25.0,30.04,NNW,340,11.0,14.0,52,-99.99,,,-99.99,,2013-02-04 09:00:00,
2013-02-04 04:21:00,41.0,25.0,30.04,NNW,340,11.0,14.0,52,-99.99,,,-99.99,,2013-02-04 09:21:00,
2013-02-04 04:31:00,41.0,25.0,30.04,NNW,340,11.0,14.0,52,-99.99,,,-99.99,,2013-02-04 09:31:00,
2013-02-04 04:41:00,41.0,25.0,30.04,NNW,340,11.0,14.0,52,-99.99,,,-99.99,,2013-02-04 09:41:00,
2013-02-04 04:51:00,41.0,25.0,30.04,NNW,340,11.0,14.0,52,-99.99,,,-99.99,,2013-02-04 09:51:00,
2013-02-04 05:00:00,40.0,24.0,30.05,NNW,340,15.0,18.0,53,-99.99,,,-99.99,,2013-02-04 10:00:00,
2013-02-04 05:21:00,40.0,24.0,30.05,NNW,340,15.0,18.0,53,-99.99,,,-99.99,,2013-02-04 10:21:00,
2013-02-04 05:32:00,40.0,24.0,30.05,NNW,340,15.0,18.0,53,-99.99,,,-99.99,,2013-02-04 10:32:00,
2013-02-04 05:41:00,40.0,24.0,30.05,NNW,340,15.0,18.0,53,-99.99,,,-99.99,,2013-02-04 10:41:00,
2013-02-04 05:51:00,40.0,24.0,30.05,NNW,340,15.0,18.0,53,-99.99,,,-99.99,,2013-02-04 10:51:00,
2013-02-04 06:00:00,39.0,22.0,30.08,NNW,330,14.0,16.0,50,-99.99,,,-99.99,,2013-02-04 11:00:00,
2013-02-04 06:22:00,39.0,22.0,30.08,NNW,330,14.0,16.0,50,-99.99,,,-99.99,,2013-02-04 11:22:00,
2013-02-04 06:32:00,39.0,22.0,30.08,NNW,330,14.0,16.0,50,-99.99,,,-99.99,,2013-02-04 11:32:00,
2013-02-04 06:41:00,39.0,22.0,30.08,NNW,330,14.0,16.0,50,-99.99,,,-99.99,,2013-02-04 11:41:00,
2013-02-04 06:52:00,39.0,22.0,30.08,NNW,330,14.0,16.0,50,-99.99,,,-99.99,,2013-02-04 11:52:00,
2013-02-04 07:00:00,38.0,22.0,30.09,NNW,340,9.0,11.0,53,-99.99,,,-99.99,,2013-02-04 12:00:00,
2013-02-04 07:21:00,38.0,22.0,30.09,NNW,340,9.0,11.0,53,-99.99,,,-99.99,,2013-02-04 12:21:00,
2013-02-04 07:32:00,38.0,22.0,30.09,NNW,340,9.0,11.0,53,-99.99,,,-99.99,,2013-02-04 12:32:00,
2013-02-04 07:41:00,38.0,22.0,30.09,NNW,340,9.0,11.0,53,-99.99,,,-99.99,,2013-02-04 12:41:00,
2013-02-04 07:52:00,38.0,22.0,30.09,NNW,340,9.0,11.0,53,-99.99,,,-99.99,,2013-02-04 12:52:00,
2013-02-04 08:00:00,38.0,20.0,30.11,North,350,11.0,14.0,48,-99.99,,,-99.99,,2013-02-04 13:00:00,
2013-02-04 08:21:00,38.0,20.0,30.11,North,350,11.0,14.0,48,-99.99,,,-99.99,,2013-02-04 13:21:00,
2013-02-04 08:32:00,38.0,20.0,30.11,North,350,11.0,14.0,48,-99.99,,,-99.99,,2013-02-04 13:32:00,
2013-02-04 08:41:00,38.0,20.0,30.11,North,350,11.0,14.0,48,-99.99,,,-99.99,,2013-02-04 13:41:00,
2013-02-04 08:51:00,38.0,20.0,30.11,North,350,11.0,14.0,48,-99.99,,,-99.99,,2013-02-04 13:51:00,
2013-02-04 09:00:00,39.0,20.0,30.14,NNW,340,7.0,9.0,47,-99.99,,,-99.99,,2013-02-04 14:00:00,
2013-02-04 09:21:00,39.0,20.0,30.14,NNW,340,7.0,9.0,47,-99.99,,,-99.99,,2013-02-04 14:21:00,
2013-02-04 09:32:00,39.0,20.0,30.14,NNW,340,7.0,9.0,47,-99.99,,,-99.99,,2013-02-04 14:32:00,
2013-02-04 09:41:00,39.0,20.0,30.14,NNW,340,7.0,9.0,47,-99.99,,,-99.99,,2013-02-04 14:41:00,
2013-02-04 09:52:00,39.0,20.0,30.14,NNW,340,7.0,9.0,47,-99.99,,,-99.99,,2013-02-04 14:52:00,
2013-02-04 10:00:00,39.0,21.0,30.14,North,10,9.0,11.0,47,-99.99,,,-99.99,,2013-02-04 15:00:00,
2013-02-04 10:22:00,39.0,21.0,30.14,North,10,9.0,11.0,47,-99.99,,,-99.99,,2013-02-04 15:22:00,
2013-02-04 10:33:00,39.0,21.0,30.14,North,10,9.0,11.0,47,-99.99,,,-99.99,,2013-02-04 15:33:00,
2013-02-04 10:42:00,39.0,21.0,30.14,North,10,9.0,11.0,47,-99.99,,,-99.99,,2013-02-04 15:42:00,
2013-02-04 10:52:00,39.0,21.0,30.14,North,10,9.0,11.0,47,-99.99,,,-99.99,,2013-02-04 15:52:00,
2013-02-04 11:00:00,41.0,20.0,30.15,NNW,330,9.0,13.0,41,-99.99,,,-99.99,,2013-02-04 16:00:00,
2013-02-04 11:21:00,41.0,20.0,30.15,NNW,330,9.0,13.0,41,-99.99,,,-99.99,,2013-02-04 16:21:00,
2013-02-04 11:32:00,41.0,20.0,30.15,NNW,330,9.0,13.0,41,-99.99,,,-99.99,,2013-02-04 16:32:00,
2013-02-04 11:42:00,41.0,20.0,30.15,NNW,330,9.0,13.0,41,-99.99,,,-99.99,,2013-02-04 16:42:00,
2013-02-04 11:51:00,41.0,20.0,30.15,NNW,330,9.0,13.0,41,-99.99,,,-99.99,,2013-02-04 16:51:00,
2013-02-04 12:00:00,43.0,19.0,30.13,NW,310,7.0,9.0,37,-99.99,,,-99.99,,2013-02-04 17:00:00,
2013-02-04 12:21:00,43.0,19.0,30.13,NW,310,7.0,9.0,37,-99.99,,,-99.99,,2013-02-04 17:21:00,
2013-02-04 12:31:00,43.0,19.0,30.13,NW,310,7.0,9.0,37,-99.99,,,-99.99,,2013-02-04 17:31:00,
2013-02-04 12:41:00,43.0,19.0,30.13,NW,310,7.0,9.0,37,-99.99,,,-99.99,,2013-02-04 17:41:00,
2013-02-04 12:51:00,43.0,19.0,30.13,NW,310,7.0,9.0,37,-99.99,,,-99.99,,2013-02-04 17:51:00,
2013-02-04 13:00:00,44.0,20.0,30.11,WNW,290,6.0,7.0,37,-99.99,,,-99.99,,2013-02-04 18:00:00,
2013-02-04 13:21:00,44.0,20.0,30.11,WNW,290,6.0,7.0,37,-99.99,,,-99.99,,2013-02-04 18:21:00,
2013-02-04 13:31:00,44.0,20.0,30.11,WNW,290,6.0,7.0,37,-99.99,,,-99.99,,2013-02-04 18:31:00,
2013-02-04 13:41:00,44.0,20.0,30.11,WNW,290,6.0,7.0,37,-99.99,,,-99.99,,2013-02-04 18:41:00,
2013-02-04 13:52:00,44.0,20.0,30.11,WNW,290,6.0,7.0,37,-99.99,,,-99.99,,2013-02-04 18:52:00,
2013-02-04 14:00:00,45.0,21.0,30.11,West,260,5.0,6.0,37,-99.99,,,-99.99,,2013-02-04 19:00:00,
2013-02-04 14:21:00,45.0,21.0,30.11,West,260,5.0,6.0,37,-99.99,,,-99.99,,2013-02-04 19:21:00,
2013-02-04 14:31:00,45.0,21.0,30.11,West,260,5.0,6.0,37,-99.99,,,-99.99,,2013-02-04 19:31:00,
2013-02-04 14:41:00,45.0,21.0,30.11,West,260,5.0,6.0,37,-99.99,,,-99.99,,2013-02-04 19:41:00,
2013-02-04 14:51:00,45.0,21.0,30.11,West,260,5.0,6.0,37,-99.99,,,-99.99,,2013-02-04 19:51:00,
2013-02-04 15:00:00,44.0,22.0,30.09,WSW,240,3.0,5.0,40,-99.99,,,-99.99,,2013-02-04 20:00:00,
2013-02-04 15:21:00,44.0,22.0,30.09,WSW,240,3.0,5.0,40,-99.99,,,-99.99,,2013-02-04 20:21:00,
2013-02-04 15:31:00,44.0,22.0,30.09,WSW,240,3.0,5.0,40,-99.99,,,-99.99,,2013-02-04 20:31:00,
2013-02-04 15:42:00,44.0,22.0,30.09,WSW,240,3.0,5.0,40,-99.99,,,-99.99,,2013-02-04 20:42:00,
2013-02-04 15:52:00,44.0,22.0,30.09,WSW,240,3.0,5.0,40,-99.99,,,-99.99,,2013-02-04 20:52:00,
2013-02-04 16:00:00,44.0,22.0,30.08,South,170,5.0,7.0,41,-99.99,,,-99.99,,2013-02-04 21:00:00,
2013-02-04 16:21:00,44.0,22.0,30.08,South,170,5.0,7.0,41,-99.99,,,-99.99,,2013-02-04 21:21:00,
2013-02-04 16:31:00,44.0,22.0,30.08,South,170,5.0,7.0,41,-99.99,,,-99.99,,2013-02-04 21:31:00,
2013-02-04 16:42:00,44.0,22.0,30.08,South,170,5.0,7.0,41,-99.99,,,-99.99,,2013-02-04 21:42:00,
2013-02-04 16:51:00,44.0,22.0,30.08,South,170,5.0,7.0,41,-99.99,,,-99.99,,2013-02-04 21:51:00,
2013-02-04 17:00:00,44.0,23.0,30.08,South,180,5.0,6.0,43,-99.99,,,-99.99,,2013-02-04 22:00:00,
2013-02-04 17:21:00,44.0,23.0,30.08,South,180,5.0,6.0,43,-99.99,,,-99.99,,2013-02-04 22:21:00,
2013-02-04 17:32:00,44.0,23.0,30.08,South,180,5.0,6.0,43,-99.99,,,-99.99,,2013-02-04 22:32:00,
2013-02-04 17:41:00,44.0,23.0,30.08,South,180,5.0,6.0,43,-99.99,,,-99.99,,2013-02-04 22:41:00,
2013-02-04 17:51:00,44.0,23.0,30.08,South,180,5.0,6.0,43,-99.99,,,-99.99,,2013-02-04 22:51:00,
2013-02-04 18:00:00,44.0,24.0,30.10,SSW,210,5.0,5.0,44,-99.99,,,-99.99,,2013-02-04 23:00:00,
2013-02-04 18:21:00,44.0,24.0,30.10,SSW,210,5.0,5.0,44,-99.99,,,-99.99,,2013-02-04 23:21:00,
2013-02-04 18:31:00,44.0,24.0,30.10,SSW,210,5.0,5.0,44,-99.99,,,-99.99,,2013-02-04 23:31:00,
2013-02-04 18:41:00,44.0,24.0,30.10,SSW,210,5.0,5.0,44,-99.99,,,-99.99,,2013-02-04 23:41:00,
2013-02-04 18:52:00,44.0,24.0,30.10,SSW,210,5.0,5.0,44,-99.99,,,-99.99,,2013-02-04 23:52:00,
2013-02-04 19:00:00,44.0,25.0,30.10,SSW,200,5.0,6.0,46,-99.99,,,-99.99,,2013-02-05 00:00:00,
2013-02-04 19:21:00,44.0,25.0,30.10,SSW,200,5.0,6.0,46,-99.99,,,-99.99,,2013-02-05 00:21:00,
2013-02-04 19:31:00,44.0,25.0,30.10,SSW,200,5.0,6.0,46,-99.99,,,-99.99,,2013-02-05 00:31:00,
2013-02-04 19:41:00,44.0,25.0,30.10,SSW,200,5.0,6.0,46,-99.99,,,-99.99,,2013-02-05 00:41:00,
2013-02-04 19:51:00,44.0,25.0,30.10,SSW,200,5.0,6.0,46,-99.99,,,-99.99,,2013-02-05 00:51:00,
2013-02-04 20:00:00,46.0,27.0,30.09,South,190,9.0,11.0,47,-99.99,,,-99.99,,2013-02-05 01:00:00,
2013-02-04 20:21:00,46.0,27.0,30.09,South,190,9.0,11.0,47,-99.99,,,-99.99,,2013-02-05 01:21:00,
2013-02-04 20:32:00,46.0,27.0,30.09,South,190,9.0,11.0,47,-99.99,,,-99.99,,2013-02-05 01:32:00,
2013-02-04 20:41:00,46.0,27.0,30.09,South,190,9.0,11.0,47,-99.99,,,-99.99,,2013-02-05 01:41:00,
2013-02-04 20:51:00,46.0,27.0,30.09,South,190,9.0,11.0,47,-99.99,,,-99.99,,2013-02-05 01:51:00,
2013-02-04 21:00:00,47.0,29.0,30.08,SSW,200,7.0,9.0,49,-99.99,,,-99.99,,2013-02-05 02:00:00,
2013-02-04 21:21:00,47.0,29.0,30.08,SSW,200,7.0,9.0,49,-99.99,,,-99.99,,2013-02-05 02:21:00,
2013-02-04 21:31:00,47.0,29.0,30.08,SSW,200,7.0,9.0,49,-99.99,,,-99.99,,2013-02-05 02:31:00,
2013-02-04 21:41:00,47.0,29.0,30.08,SSW,200,7.0,9.0,49,-99.99,,,-99.99,,2013-02-05 02:41:00,
2013-02-04 21:52:00,47.0,29.0,30.08,SSW,200,7.0,9.0,49,-99.99,,,-99.99,,2013-02-05 02:52:00,
2013-02-04 22:00:00,47.0,32.0,30.07,SSW,200,7.0,8.0,54,-99.99,,,-99.99,,2013-02-05 03:00:00,
2013-02-04 22:31:00,47.0,32.0,30.07,SSW,200,7.0,8.0,54,-99.99,,,-99.99,,2013-02-05 03:31:00,
2013-02-04 22:41:00,47.0,32.0,30.07,SSW,200,7.0,8.0,54,-99.99,,,-99.99,,2013-02-05 03:41:00,
2013-02-04 22:51:00,47.0,32.0,30.07,SSW,200,7.0,8.0,54,-99.99,,,-99.99,,2013-02-05 03:51:00,
2013-02-04 23:00:00,49.0,34.0,30.06,SSW,210,5.0,7.0,55,-99.99,,,-99.99,,2013-02-05 04:00:00,
2013-02-04 23:21:00,49.0,34.0,30.06,SSW,210,5.0,7.0,55,-99.99,,,-99.99,,2013-02-05 04:21:00,
2013-02-04 23:31:00,49.0,34.0,30.06,SSW,210,5.0,7.0,55,-99.99,,,-99.99,,2013-02-05 04:31:00,
2013-02-04 23:41:00,49.0,34.0,30.06,SSW,210,5.0,7.0,55,-99.99,,,-99.99,,2013-02-05 04:41:00,
2013-02-04 23:51:00,49.0,34.0,30.06,SSW,210,5.0,7.0,55,-99.99,,,-99.99,,2013-02-05 04:51:00,